createdAt,value
2024-01-28T00:00:52.116Z,67.95
2024-01-28T00:03:40.377Z,68.02
2024-01-28T00:06:08.412Z,67.89
2024-01-28T00:08:36.499Z,68.06
2024-01-28T00:11:04.756Z,68.31
2024-01-28T00:13:35.604Z,68.65
2024-01-28T00:16:04.113Z,68.89
2024-01-28T00:18:32.569Z,68.99
2024-01-28T00:21:00.597Z,69.07
2024-01-28T00:23:28.840Z,69.09
2024-01-28T00:25:58.308Z,69.09
2024-01-28T00:28:26.428Z,69.01
2024-01-28T00:30:54.550Z,69.02
2024-01-28T00:33:23.386Z,69.22
2024-01-28T00:35:51.430Z,69.47
2024-01-28T00:38:19.490Z,69.39
2024-01-28T00:40:47.371Z,69.48
2024-01-28T00:43:15.511Z,69.37
2024-01-28T00:45:43.435Z,69.37
2024-01-28T00:48:11.771Z,69.08
2024-01-28T00:50:39.766Z,69.00
2024-01-28T00:53:07.762Z,69.04
2024-01-28T00:55:35.994Z,69.32
2024-01-28T00:58:03.975Z,69.54
2024-01-28T01:00:32.473Z,69.56
2024-01-28T01:03:00.666Z,69.54
2024-01-28T01:05:29.241Z,69.57
2024-01-28T01:07:57.406Z,69.65
2024-01-28T01:10:27.180Z,69.58
2024-01-28T01:12:55.362Z,69.60
2024-01-28T01:15:23.662Z,69.53
2024-01-28T01:17:52.005Z,69.66
2024-01-28T01:20:20.826Z,69.86
2024-01-28T01:22:49.620Z,69.88
2024-01-28T01:25:17.878Z,69.85
2024-01-28T01:27:47.087Z,69.95
2024-01-28T01:30:16.134Z,69.93
2024-01-28T01:32:44.549Z,70.05
2024-01-28T01:35:14.452Z,70.06
2024-01-28T01:37:42.928Z,70.06
2024-01-28T01:40:15.823Z,70.11
2024-01-28T01:42:44.823Z,69.96
2024-01-28T01:45:13.877Z,69.89
2024-01-28T01:47:42.982Z,69.81
2024-01-28T01:50:12.608Z,69.70
2024-01-28T01:52:42.759Z,69.72
2024-01-28T01:55:12.781Z,69.65
2024-01-28T01:57:43.680Z,69.71
2024-01-28T02:00:16.658Z,69.73
2024-01-28T02:02:48.737Z,69.69
2024-01-28T02:05:17.367Z,69.64
2024-01-28T02:07:45.972Z,69.72
2024-01-28T02:10:14.039Z,69.90
2024-01-28T02:12:45.203Z,69.88
2024-01-28T02:15:13.198Z,70.03
2024-01-28T02:17:41.162Z,70.02
2024-01-28T02:20:10.018Z,70.07
2024-01-28T02:22:38.049Z,70.14
2024-01-28T02:25:07.923Z,69.92
2024-01-28T02:27:37.354Z,69.89
2024-01-28T02:30:06.565Z,70.02
2024-01-28T02:32:34.710Z,69.88
2024-01-28T02:35:03.020Z,69.70
2024-01-28T02:37:31.089Z,69.50
2024-01-28T02:39:59.354Z,69.09
2024-01-28T02:42:27.483Z,68.80
2024-01-28T02:44:56.031Z,68.52
2024-01-28T02:47:24.041Z,68.22
2024-01-28T02:49:52.236Z,68.08
2024-01-28T02:52:20.484Z,68.39
2024-01-28T02:54:48.833Z,68.48
2024-01-28T02:57:16.804Z,68.54
2024-01-28T02:59:44.747Z,68.62
2024-01-28T03:02:13.163Z,68.78
2024-01-28T03:04:41.147Z,68.87
2024-01-28T03:07:09.149Z,68.91
2024-01-28T03:09:37.232Z,69.01
2024-01-28T03:12:05.783Z,69.00
2024-01-28T03:14:33.936Z,69.07
2024-01-28T03:17:03.104Z,69.20
2024-01-28T03:19:31.609Z,68.98
2024-01-28T03:21:59.465Z,68.94
2024-01-28T03:24:27.462Z,68.87
2024-01-28T03:26:55.503Z,69.00
2024-01-28T03:29:23.682Z,68.88
2024-01-28T03:31:51.884Z,68.91
2024-01-28T03:34:19.976Z,69.12
2024-01-28T03:36:48.041Z,69.25
2024-01-28T03:39:16.118Z,69.38
2024-01-28T03:41:44.391Z,69.64
2024-01-28T03:44:13.365Z,69.76
2024-01-28T03:46:41.369Z,69.92
2024-01-28T03:49:09.566Z,69.98
2024-01-28T03:51:37.698Z,70.02
2024-01-28T03:54:05.960Z,70.36
2024-01-28T03:56:35.654Z,70.42
2024-01-28T03:59:03.713Z,70.62
2024-01-28T04:01:34.975Z,70.68
2024-01-28T04:04:04.004Z,70.80
2024-01-28T04:06:32.745Z,70.75
2024-01-28T04:09:00.785Z,70.44
2024-01-28T04:11:29.176Z,70.50
2024-01-28T04:13:57.755Z,70.62
2024-01-28T04:16:27.273Z,70.66
2024-01-28T04:18:57.093Z,70.60
2024-01-28T04:21:25.330Z,70.56
2024-01-28T04:23:53.572Z,70.52
2024-01-28T04:26:21.689Z,70.52
2024-01-28T04:28:50.189Z,70.54
2024-01-28T04:31:18.329Z,70.48
2024-01-28T04:33:46.485Z,70.58
2024-01-28T04:36:14.737Z,70.54
2024-01-28T04:38:42.882Z,70.37
2024-01-28T04:41:10.996Z,70.53
2024-01-28T04:43:40.358Z,70.40
2024-01-28T04:46:08.416Z,70.56
2024-01-28T04:48:38.326Z,70.57
2024-01-28T04:51:06.532Z,70.61
2024-01-28T04:53:34.557Z,70.89
2024-01-28T04:56:02.592Z,71.08
2024-01-28T04:58:30.461Z,71.29
2024-01-28T05:00:58.787Z,71.35
2024-01-28T05:03:27.361Z,71.21
2024-01-28T05:05:55.792Z,71.39
2024-01-28T05:08:23.765Z,71.38
2024-01-28T05:10:51.876Z,71.22
2024-01-28T05:13:20.530Z,71.40
2024-01-28T05:15:49.443Z,71.25
2024-01-28T05:18:18.079Z,71.23
2024-01-28T05:20:46.288Z,71.18
2024-01-28T05:23:14.793Z,71.06
2024-01-28T05:25:42.988Z,70.89
2024-01-28T05:28:12.902Z,70.79
2024-01-28T05:30:41.306Z,70.95
2024-01-28T05:33:09.615Z,70.77
2024-01-28T05:35:38.249Z,70.55
2024-01-28T05:38:06.082Z,70.70
2024-01-28T05:40:34.146Z,71.19
2024-01-28T05:43:02.445Z,70.80
2024-01-28T05:45:30.738Z,70.66
2024-01-28T05:48:03.504Z,70.37
2024-01-28T05:50:32.229Z,70.28
2024-01-28T05:53:00.466Z,74.45
2024-01-28T05:55:28.653Z,77.99
2024-01-28T05:57:56.950Z,73.01
2024-01-28T06:00:25.161Z,71.03
2024-01-28T06:02:53.559Z,70.57
2024-01-28T06:05:21.609Z,70.34
2024-01-28T06:07:49.519Z,69.88
2024-01-28T06:10:17.837Z,69.76
2024-01-28T06:12:46.069Z,69.89
2024-01-28T06:15:14.214Z,70.05
2024-01-28T06:17:42.314Z,69.92
2024-01-28T06:20:10.728Z,69.91
2024-01-28T06:22:38.750Z,69.86
2024-01-28T06:25:08.509Z,69.86
2024-01-28T06:27:37.136Z,69.85
2024-01-28T06:30:06.814Z,69.76
2024-01-28T06:32:35.394Z,69.74
2024-01-28T06:35:04.956Z,69.86
2024-01-28T06:37:32.925Z,69.66
2024-01-28T06:40:01.428Z,69.84
2024-01-28T06:42:33.522Z,69.99
2024-01-28T06:45:01.745Z,69.86
2024-01-28T06:47:29.950Z,69.85
2024-01-28T06:49:57.892Z,69.63
2024-01-28T06:52:26.213Z,69.64
2024-01-28T06:54:54.413Z,69.74
2024-01-28T06:57:22.591Z,69.61
2024-01-28T06:59:50.959Z,69.70
2024-01-28T07:02:18.911Z,69.79
2024-01-28T07:04:47.769Z,69.75
2024-01-28T07:07:16.080Z,69.55
2024-01-28T07:09:43.996Z,69.56
2024-01-28T07:12:12.118Z,69.44
2024-01-28T07:14:41.807Z,69.29
2024-01-28T07:17:10.795Z,69.41
2024-01-28T07:19:41.840Z,69.42
2024-01-28T07:22:12.832Z,69.18
2024-01-28T07:24:41.732Z,69.14
2024-01-28T07:27:09.806Z,68.80
2024-01-28T07:29:38.068Z,68.71
2024-01-28T07:32:06.331Z,68.43
2024-01-28T07:34:34.501Z,68.48
2024-01-28T07:37:02.914Z,68.52
2024-01-28T07:39:30.984Z,68.13
2024-01-28T07:42:01.910Z,67.77
2024-01-28T07:44:30.545Z,67.59
2024-01-28T07:46:58.647Z,67.85
2024-01-28T07:49:26.866Z,67.69
2024-01-28T07:51:55.792Z,67.57
2024-01-28T07:54:24.153Z,67.61
2024-01-28T07:56:53.354Z,67.61
2024-01-28T07:59:21.238Z,67.47
2024-01-28T08:01:49.864Z,67.73
2024-01-28T08:04:18.407Z,67.34
2024-01-28T08:06:46.599Z,67.30
2024-01-28T08:09:14.980Z,67.32
2024-01-28T08:11:43.040Z,67.41
2024-01-28T08:14:11.035Z,67.08
2024-01-28T08:16:39.091Z,67.09
2024-01-28T08:19:07.111Z,66.68
2024-01-28T08:21:35.331Z,66.53
2024-01-28T08:24:03.605Z,66.68
2024-01-28T08:26:31.631Z,66.27
2024-01-28T08:28:59.619Z,66.06
2024-01-28T08:31:27.797Z,65.95
2024-01-28T08:33:56.140Z,65.78
2024-01-28T08:36:24.176Z,65.28
2024-01-28T08:38:52.390Z,64.61
2024-01-28T08:41:20.389Z,64.70
2024-01-28T08:43:48.367Z,64.36
2024-01-28T08:46:17.614Z,63.83
2024-01-28T08:48:45.915Z,63.37
2024-01-28T08:51:13.918Z,62.74
2024-01-28T08:53:43.766Z,62.65
2024-01-28T08:56:11.970Z,62.89
2024-01-28T08:58:39.872Z,62.23
2024-01-28T09:01:09.515Z,62.01
2024-01-28T09:03:37.817Z,61.55
2024-01-28T09:06:07.715Z,61.27
2024-01-28T09:08:36.300Z,61.62
2024-01-28T09:11:04.656Z,61.52
2024-01-28T09:13:32.613Z,61.15
2024-01-28T09:16:00.906Z,60.98
2024-01-28T09:18:29.226Z,60.55
2024-01-28T09:20:57.205Z,60.38
2024-01-28T09:23:25.728Z,59.26
2024-01-28T09:25:53.758Z,59.19
2024-01-28T09:28:21.846Z,59.43
2024-01-28T09:30:50.039Z,59.52
2024-01-28T09:33:18.545Z,59.15
2024-01-28T09:35:48.070Z,58.59
2024-01-28T09:38:16.336Z,58.60
2024-01-28T09:40:44.521Z,58.94
2024-01-28T09:43:22.598Z,58.97
2024-01-28T09:45:51.737Z,58.94
2024-01-28T09:48:21.047Z,59.30
2024-01-28T09:50:49.464Z,59.08
2024-01-28T09:53:17.772Z,58.93
2024-01-28T09:55:46.084Z,58.45
2024-01-28T09:58:14.665Z,58.68
2024-01-28T10:00:42.975Z,58.91
2024-01-28T10:03:11.254Z,59.13
2024-01-28T10:05:39.361Z,58.91
2024-01-28T10:08:07.657Z,58.51
2024-01-28T10:10:36.798Z,58.50
2024-01-28T10:13:05.504Z,58.50
2024-01-28T10:15:33.712Z,58.62
2024-01-28T10:18:02.167Z,58.40
2024-01-28T10:20:31.068Z,58.56
2024-01-28T10:22:59.757Z,58.94
2024-01-28T10:25:27.900Z,58.44
2024-01-28T10:27:55.966Z,58.23
2024-01-28T10:30:24.229Z,58.10
2024-01-28T10:32:53.425Z,58.19
2024-01-28T10:35:21.385Z,57.95
2024-01-28T10:37:53.978Z,57.80
2024-01-28T10:40:25.394Z,57.95
2024-01-28T10:42:57.557Z,58.36
2024-01-28T10:45:25.982Z,58.28
2024-01-28T10:47:55.948Z,57.99
2024-01-28T10:50:29.897Z,57.78
2024-01-28T10:52:59.745Z,58.09
2024-01-28T10:55:29.624Z,58.01
2024-01-28T10:57:58.083Z,58.00
2024-01-28T11:00:28.516Z,58.09
2024-01-28T11:03:00.513Z,58.12
2024-01-28T11:05:30.337Z,57.82
2024-01-28T11:08:01.549Z,57.66
2024-01-28T11:10:31.856Z,57.20
2024-01-28T11:13:03.701Z,57.39
2024-01-28T11:15:34.831Z,57.35
2024-01-28T11:18:03.356Z,57.52
2024-01-28T11:20:34.674Z,58.00
2024-01-28T11:23:03.710Z,58.26
2024-01-28T11:25:32.185Z,58.14
2024-01-28T11:28:03.266Z,58.27
2024-01-28T11:30:31.798Z,57.94
2024-01-28T11:33:11.492Z,57.79
2024-01-28T11:35:45.022Z,57.50
2024-01-28T11:38:25.570Z,57.44
2024-01-28T11:41:03.527Z,57.44
2024-01-28T11:43:31.775Z,57.60
2024-01-28T11:46:01.100Z,57.81
2024-01-28T11:48:29.783Z,57.43
2024-01-28T11:50:58.075Z,57.65
2024-01-28T11:53:26.106Z,57.95
2024-01-28T11:55:54.340Z,57.64
2024-01-28T11:58:22.669Z,57.49
2024-01-28T12:00:51.557Z,57.08
2024-01-28T12:03:20.108Z,56.40
2024-01-28T12:05:48.447Z,56.35
2024-01-28T12:08:29.384Z,56.43
2024-01-28T12:11:03.709Z,56.38
2024-01-28T12:13:33.129Z,55.75
2024-01-28T12:16:01.527Z,55.99
2024-01-28T12:18:34.105Z,55.59
2024-01-28T12:21:02.948Z,55.38
2024-01-28T12:23:32.435Z,55.57
2024-01-28T12:26:00.727Z,55.31
2024-01-28T12:28:29.127Z,55.59
2024-01-28T12:30:57.186Z,55.54
2024-01-28T12:33:25.646Z,55.29
2024-01-28T12:35:53.860Z,54.86
2024-01-28T12:38:22.300Z,54.96
2024-01-28T12:40:50.360Z,54.81
2024-01-28T12:43:18.379Z,54.52
2024-01-28T12:45:46.722Z,54.49
2024-01-28T12:48:14.864Z,54.39
2024-01-28T12:50:43.009Z,54.89
2024-01-28T12:53:11.601Z,54.87
2024-01-28T12:55:39.924Z,54.67
2024-01-28T12:58:08.887Z,54.70
2024-01-28T13:00:37.534Z,54.34
2024-01-28T13:03:05.820Z,54.70
2024-01-28T13:05:34.202Z,54.54
2024-01-28T13:08:02.549Z,54.30
2024-01-28T13:10:30.776Z,54.17
2024-01-28T13:12:58.927Z,53.91
2024-01-28T13:15:27.533Z,53.71
2024-01-28T13:17:55.595Z,53.97
2024-01-28T13:20:24.382Z,54.22
2024-01-28T13:22:52.967Z,54.45
2024-01-28T13:25:22.175Z,54.34
2024-01-28T13:27:50.748Z,54.23
2024-01-28T13:30:19.235Z,54.22
2024-01-28T13:32:48.165Z,54.28
2024-01-28T13:35:17.175Z,54.52
2024-01-28T13:37:46.061Z,54.83
2024-01-28T13:40:14.061Z,55.10
2024-01-28T13:42:42.064Z,55.22
2024-01-28T13:45:12.999Z,55.57
2024-01-28T13:47:42.375Z,55.74
2024-01-28T13:50:10.568Z,56.13
2024-01-28T13:52:38.985Z,56.11
2024-01-28T13:55:07.362Z,55.77
2024-01-28T13:57:35.718Z,55.48
2024-01-28T14:00:06.789Z,55.09
2024-01-28T14:02:35.998Z,55.29
2024-01-28T14:05:08.268Z,55.61
2024-01-28T14:07:37.776Z,55.84
2024-01-28T14:10:06.594Z,56.13
2024-01-28T14:12:34.690Z,56.17
2024-01-28T14:15:02.803Z,56.57
2024-01-28T14:17:31.827Z,56.72
2024-01-28T14:20:00.429Z,56.63
2024-01-28T14:22:29.756Z,56.29
2024-01-28T14:24:57.791Z,56.69
2024-01-28T14:27:26.286Z,56.81
2024-01-28T14:29:54.474Z,56.77
2024-01-28T14:32:22.719Z,56.93
2024-01-28T14:34:51.201Z,57.15
2024-01-28T14:37:19.402Z,57.41
2024-01-28T14:39:47.624Z,57.54
2024-01-28T14:42:15.666Z,57.79
2024-01-28T14:44:43.615Z,58.03
2024-01-28T14:47:13.347Z,58.37
2024-01-28T14:49:41.870Z,58.88
2024-01-28T14:52:10.016Z,58.84
2024-01-28T14:54:38.866Z,58.90
2024-01-28T14:57:08.412Z,59.25
2024-01-28T14:59:38.321Z,59.11
2024-01-28T15:02:07.998Z,58.94
2024-01-28T15:04:36.301Z,58.90
2024-01-28T15:07:05.285Z,58.86
2024-01-28T15:09:33.440Z,58.63
2024-01-28T15:12:01.468Z,58.62
2024-01-28T15:14:29.627Z,59.11
2024-01-28T15:16:57.580Z,59.24
2024-01-28T15:19:26.142Z,59.35
2024-01-28T15:21:54.382Z,59.40
2024-01-28T15:24:22.397Z,59.52
2024-01-28T15:26:50.556Z,59.57
2024-01-28T15:29:21.014Z,59.54
2024-01-28T15:31:49.077Z,59.62
2024-01-28T15:34:17.525Z,59.50
2024-01-28T15:36:45.810Z,59.64
2024-01-28T15:39:13.928Z,59.77
2024-01-28T15:41:42.105Z,59.99
2024-01-28T15:44:10.542Z,60.00
2024-01-28T15:46:40.688Z,60.05
2024-01-28T15:49:09.472Z,60.04
2024-01-28T15:51:37.528Z,60.21
2024-01-28T15:54:06.689Z,60.21
2024-01-28T15:56:38.718Z,60.35
2024-01-28T15:59:07.561Z,60.50
2024-01-28T16:01:37.555Z,61.56
2024-01-28T16:04:05.953Z,61.18
2024-01-28T16:06:34.416Z,60.86
2024-01-28T16:09:02.612Z,60.93
2024-01-28T16:11:30.864Z,61.10
2024-01-28T16:13:58.868Z,61.26
2024-01-28T16:16:27.130Z,61.38
2024-01-28T16:18:56.382Z,61.58
2024-01-28T16:21:24.544Z,61.50
2024-01-28T16:23:52.713Z,61.81
2024-01-28T16:26:20.901Z,62.00
2024-01-28T16:28:49.081Z,62.02
2024-01-28T16:31:19.859Z,62.28
2024-01-28T16:33:47.934Z,62.36
2024-01-28T16:36:17.596Z,62.28
2024-01-28T16:38:46.046Z,62.12
2024-01-28T16:41:14.384Z,62.25
2024-01-28T16:43:42.395Z,62.37
2024-01-28T16:46:11.147Z,62.27
2024-01-28T16:48:39.289Z,62.32
2024-01-28T16:51:10.597Z,62.23
2024-01-28T16:53:39.284Z,62.09
2024-01-28T16:56:07.778Z,61.98
2024-01-28T16:58:35.965Z,62.06
2024-01-28T17:01:06.115Z,62.26
2024-01-28T17:03:35.559Z,62.16
2024-01-28T17:06:03.872Z,61.97
2024-01-28T17:08:32.047Z,61.89
2024-01-28T17:11:00.171Z,61.84
2024-01-28T17:13:32.339Z,61.88
2024-01-28T17:18:30.454Z,62.07
2024-01-28T17:20:58.390Z,61.86
2024-01-28T17:23:29.494Z,61.89
2024-01-28T17:25:57.675Z,61.68
2024-01-28T17:28:25.821Z,61.82
2024-01-28T17:30:56.609Z,61.95
2024-01-28T17:33:24.838Z,61.72
2024-01-28T17:35:53.266Z,61.59
2024-01-28T17:38:21.389Z,61.50
2024-01-28T17:40:55.985Z,61.65
2024-01-28T17:43:24.749Z,61.74
2024-01-28T17:45:53.219Z,61.82
2024-01-28T17:48:21.564Z,61.75
2024-01-28T17:50:51.956Z,61.78
2024-01-28T17:53:21.207Z,61.82
2024-01-28T17:55:50.012Z,61.90
2024-01-28T17:58:21.756Z,62.12
2024-01-28T18:00:49.983Z,62.21
2024-01-28T18:03:18.113Z,62.30
2024-01-28T18:05:46.880Z,62.46
2024-01-28T18:08:18.885Z,62.57
2024-01-28T18:10:46.779Z,62.56
2024-01-28T18:13:14.841Z,62.50
2024-01-28T18:15:43.278Z,62.53
2024-01-28T18:18:11.825Z,62.70
2024-01-28T18:20:40.738Z,62.88
2024-01-28T18:23:09.160Z,62.91
2024-01-28T18:25:40.694Z,62.92
2024-01-28T18:28:10.529Z,62.83
2024-01-28T18:30:39.046Z,63.03
2024-01-28T18:33:07.435Z,62.98
2024-01-28T18:35:35.690Z,62.94
2024-01-28T18:38:03.845Z,62.99
2024-01-28T18:40:32.356Z,63.15
2024-01-28T18:43:00.348Z,63.15
2024-01-28T18:45:28.691Z,63.22
2024-01-28T18:47:56.894Z,63.43
2024-01-28T18:50:25.120Z,63.50
2024-01-28T18:52:53.637Z,63.45
2024-01-28T18:55:21.820Z,63.61
2024-01-28T18:57:53.700Z,63.65
2024-01-28T19:00:22.169Z,63.64
2024-01-28T19:02:50.384Z,63.82
2024-01-28T19:05:18.946Z,63.91
2024-01-28T19:07:49.070Z,63.83
2024-01-28T19:10:18.089Z,63.85
2024-01-28T19:12:46.403Z,64.03
2024-01-28T19:15:14.826Z,64.08
2024-01-28T19:17:43.270Z,64.10
2024-01-28T19:20:12.302Z,64.30
2024-01-28T19:22:40.397Z,64.43
2024-01-28T19:25:09.240Z,64.43
2024-01-28T19:27:37.200Z,64.49
2024-01-28T19:30:06.365Z,64.62
2024-01-28T19:32:34.682Z,64.45
2024-01-28T19:35:02.846Z,64.57
2024-01-28T19:37:30.995Z,64.65
2024-01-28T19:39:59.122Z,64.74
2024-01-28T19:42:27.935Z,64.72
2024-01-28T19:44:57.356Z,64.61
2024-01-28T19:47:25.948Z,64.57
2024-01-28T19:49:54.166Z,64.55
2024-01-28T19:52:22.480Z,64.57
2024-01-28T19:54:50.773Z,64.57
2024-01-28T19:57:19.373Z,64.60
2024-01-28T19:59:47.375Z,64.57
2024-01-28T20:02:15.322Z,64.62
2024-01-28T20:04:44.870Z,64.61
2024-01-28T20:07:13.888Z,64.53
2024-01-28T20:09:43.930Z,64.56
2024-01-28T20:12:12.474Z,64.56
2024-01-28T20:14:42.749Z,64.68
2024-01-28T20:17:13.755Z,64.57
2024-01-28T20:19:41.755Z,64.63
2024-01-28T20:22:09.781Z,64.69
2024-01-28T20:24:38.273Z,64.61
2024-01-28T20:27:06.457Z,64.56
2024-01-28T20:29:34.477Z,64.59
2024-01-28T20:32:02.937Z,64.65
2024-01-28T20:34:30.938Z,64.57
2024-01-28T20:36:59.140Z,64.84
2024-01-28T20:39:30.684Z,65.24
2024-01-28T20:41:59.266Z,65.58
2024-01-28T20:44:28.219Z,65.69
2024-01-28T20:46:56.422Z,65.83
2024-01-28T20:49:27.710Z,66.00
2024-01-28T20:51:55.945Z,66.07
2024-01-28T20:54:24.946Z,66.24
2024-01-28T20:56:53.121Z,66.35
2024-01-28T20:59:21.395Z,66.46
2024-01-28T21:01:49.531Z,66.65
2024-01-28T21:04:17.638Z,66.61
2024-01-28T21:06:45.571Z,66.67
2024-01-28T21:09:13.648Z,66.76
2024-01-28T21:11:41.692Z,66.69
2024-01-28T21:14:11.354Z,66.54
2024-01-28T21:16:39.438Z,66.62
2024-01-28T21:19:09.747Z,66.55
2024-01-28T21:21:42.118Z,66.61
2024-01-28T21:24:11.747Z,66.66
2024-01-28T21:26:40.774Z,66.57
2024-01-28T21:29:09.046Z,66.37
2024-01-28T21:31:37.080Z,66.35
2024-01-28T21:34:06.117Z,66.32
2024-01-28T21:36:34.087Z,66.12
2024-01-28T21:39:03.689Z,65.97
2024-01-28T21:41:31.823Z,66.00
2024-01-28T21:44:00.191Z,65.92
2024-01-28T21:46:28.212Z,65.94
2024-01-28T21:48:56.580Z,65.76
2024-01-28T21:51:24.812Z,65.62
2024-01-28T21:53:52.987Z,65.67
2024-01-28T21:56:21.226Z,65.72
2024-01-28T21:58:49.581Z,65.94
2024-01-28T22:01:17.975Z,65.96
2024-01-28T22:03:46.693Z,65.81
2024-01-28T22:06:14.921Z,65.72
2024-01-28T22:08:43.392Z,65.97
2024-01-28T22:11:13.235Z,66.21
2024-01-28T22:13:41.198Z,66.13
2024-01-28T22:16:09.815Z,66.10
2024-01-28T22:18:37.755Z,66.06
2024-01-28T22:21:05.916Z,66.10
2024-01-28T22:23:33.886Z,66.13
2024-01-28T22:26:02.023Z,66.23
2024-01-28T22:28:30.462Z,66.23
2024-01-28T22:30:58.944Z,66.30
2024-01-28T22:33:27.498Z,66.15
2024-01-28T22:35:55.515Z,66.01
2024-01-28T22:38:23.720Z,66.11
2024-01-28T22:40:51.700Z,66.33
2024-01-28T22:43:19.961Z,66.35
2024-01-28T22:45:48.167Z,66.45
2024-01-28T22:48:16.586Z,66.49
2024-01-28T22:50:44.756Z,66.60
2024-01-28T22:53:12.695Z,66.64
2024-01-28T22:55:40.958Z,66.58
2024-01-28T22:58:08.982Z,66.66
2024-01-28T23:00:45.486Z,66.67
2024-01-28T23:03:14.110Z,66.76
2024-01-28T23:05:42.531Z,66.80
2024-01-28T23:08:10.675Z,66.85
2024-01-28T23:10:39.054Z,66.90
2024-01-28T23:13:07.743Z,66.88
2024-01-28T23:15:35.857Z,66.99
2024-01-28T23:18:04.419Z,66.95
2024-01-28T23:20:34.071Z,67.02
2024-01-28T23:23:02.270Z,67.07
2024-01-28T23:25:30.597Z,67.24
2024-01-28T23:27:59.020Z,67.17
2024-01-28T23:30:27.861Z,67.10
2024-01-28T23:32:56.273Z,67.08
2024-01-28T23:35:24.935Z,67.05
2024-01-28T23:37:52.873Z,67.06
2024-01-28T23:40:20.825Z,67.17
2024-01-28T23:42:49.271Z,67.06
2024-01-28T23:45:17.363Z,67.07
2024-01-28T23:47:45.673Z,66.79
2024-01-28T23:50:13.802Z,66.82
2024-01-28T23:52:41.833Z,66.82
2024-01-28T23:55:10.553Z,66.81
2024-01-28T23:57:38.962Z,67.06
